Pagrindinis puslapis
METAR-TAF:

METAR-TAF

Oro uostai :

Beira, Mozambikas

platuma: 19-48S, ilguma: 034-54E, Aukštis: 8 m

Dabartinis oras

Ataskaita buvo paskelbta 3 valandos ir 2 minutes, ne 19:00 UTC
Vėjas 11 kt iš Rytų
Temperatūra 28°C
Drėgmė 84%
Slėgis 1011 hPa
Matomumas 10 km arba daugiau
Mažai debesys ne aukštis 2000 ft
Mažai debesys ne aukštis 3000 ft, Liūtiniai kamuoliniai debesys.

METAR: FQBR 271900Z 10011KT 9999 FEW020 FEW030CB 28/25 Q1011 RMK CB TO SW

Laikas: 00:02 (22:02 UTC)

Prognozė

Ataskaita buvo paskelbta 6 valandos ir 2 minutes, ne 16:00 UTC
Prognozė galioja nuo 27 metu 18 UTC su 28 metu 24 UTC
Vėjas 10 kt iš Rytų
Matomumas 10 km arba daugiau
Išsisklaidę debesys ne aukštis 2000 ft
Tapsmas
nuo 27 metu 22 UTC su 28 metu 00 UTC
Vėjas 8 kt iš Pietų/Pietvakarių
Tapsmas
nuo 28 metu 10 UTC su 28 metu 12 UTC
Vėjas 10 kt iš Pietų/Pietryčių su gūsio iki 20 kt

TAF: FQBR 271600Z 2718/2824 10010KT 9999 SCT020 TX29/2813Z TN26/2803Z BECMG 2722/2800 21008KT BECMG 2810/2812 15010G20KT

Orai ataskaitas ir orų prognozės (METAR, TAF).

turimą stotys yra geltonos ir raudonos taškus žemėlapyje.

Perkelti pele per norėdami pamatyti stoties vardą.

Tada spustelėkite, norėdami matyti oro stebėjimo ir prognozės.

Norėdami pakeisti žemėlapį: spustelėkite ant žalios mygtukų su juodo kryžiaus žemyn,; žalią mygtuką su brūkšneliu, jei norite nutolinti; arba žalių rodyklių gretimoms žemėlapius.


METAR-TAF: